createdAt,value
2022-08-22T00:01:56.934Z,14.66
2022-08-22T00:04:29.292Z,14.65
2022-08-22T00:07:20.937Z,14.67
2022-08-22T00:10:11.059Z,14.70
2022-08-22T00:12:48.363Z,14.61
2022-08-22T00:15:43.416Z,14.62
2022-08-22T00:18:28.631Z,14.59
2022-08-22T00:21:06.173Z,14.53
2022-08-22T00:23:46.236Z,14.50
2022-08-22T00:26:24.698Z,14.44
2022-08-22T00:29:03.878Z,14.40
2022-08-22T00:31:36.778Z,14.37
2022-08-22T00:34:12.396Z,14.39
2022-08-22T00:36:47.653Z,14.34
2022-08-22T00:39:36.863Z,14.34
2022-08-22T00:42:29.513Z,14.35
2022-08-22T00:45:17.114Z,14.33
2022-08-22T00:48:05.554Z,14.32
2022-08-22T00:51:05.908Z,14.37
2022-08-22T00:53:46.616Z,14.38
2022-08-22T00:56:35.194Z,14.35
2022-08-22T00:59:32.568Z,14.37
2022-08-22T01:02:21.844Z,14.43
2022-08-22T01:05:20.011Z,14.40
2022-08-22T01:08:11.662Z,14.39
2022-08-22T01:10:56.255Z,14.44
2022-08-22T01:13:39.411Z,14.43
2022-08-22T01:16:27.298Z,14.39
2022-08-22T01:19:29.996Z,14.37
2022-08-22T01:22:38.053Z,14.28
2022-08-22T01:25:32.521Z,14.27
2022-08-22T01:28:38.609Z,14.22
2022-08-22T01:31:28.650Z,14.15
2022-08-22T01:34:31.737Z,14.14
2022-08-22T01:37:16.108Z,14.10
2022-08-22T01:40:10.155Z,14.04
2022-08-22T01:42:44.806Z,14.05
2022-08-22T01:45:14.178Z,14.05
2022-08-22T01:47:49.762Z,14.03
2022-08-22T01:50:41.506Z,13.99
2022-08-22T01:53:28.194Z,13.94
2022-08-22T01:56:09.783Z,13.90
2022-08-22T01:58:44.289Z,13.87
2022-08-22T02:01:39.509Z,13.88
2022-08-22T02:04:24.358Z,13.84
2022-08-22T02:07:05.751Z,13.81
2022-08-22T02:10:00.367Z,13.82
2022-08-22T02:12:42.072Z,13.80
2022-08-22T02:15:14.701Z,13.75
2022-08-22T02:18:06.916Z,13.68
2022-08-22T02:20:48.329Z,13.75
2022-08-22T02:23:20.355Z,13.69
2022-08-22T02:26:04.720Z,13.65
2022-08-22T02:28:58.958Z,13.72
2022-08-22T02:32:05.315Z,13.67
2022-08-22T02:34:40.044Z,13.62
2022-08-22T02:37:24.081Z,13.60
2022-08-22T02:40:04.292Z,13.61
2022-08-22T02:42:43.132Z,13.59
2022-08-22T02:45:29.597Z,13.59
2022-08-22T02:48:23.904Z,13.54
2022-08-22T02:51:06.320Z,13.54
2022-08-22T02:53:48.625Z,13.50
2022-08-22T02:56:24.460Z,13.44
2022-08-22T02:58:53.685Z,13.41
2022-08-22T03:01:35.737Z,13.37
2022-08-22T03:04:21.461Z,13.33
2022-08-22T03:07:11.398Z,13.31
2022-08-22T03:09:56.324Z,13.32
2022-08-22T03:12:32.019Z,13.26
2022-08-22T03:15:10.443Z,13.24
2022-08-22T03:17:50.958Z,13.20
2022-08-22T03:20:42.275Z,13.20
2022-08-22T03:23:13.439Z,13.17
2022-08-22T03:26:00.361Z,13.15
2022-08-22T03:28:59.164Z,13.14
2022-08-22T03:31:28.701Z,13.16
2022-08-22T03:34:21.369Z,13.14
2022-08-22T03:37:00.492Z,13.13
2022-08-22T03:39:48.657Z,13.14
2022-08-22T03:42:41.406Z,13.14
2022-08-22T03:45:29.346Z,13.06
2022-08-22T03:48:17.437Z,13.07
2022-08-22T03:51:05.231Z,12.99
2022-08-22T03:53:43.976Z,13.02
2022-08-22T03:56:31.036Z,13.00
2022-08-22T03:58:57.466Z,13.01
2022-08-22T04:02:24.672Z,12.97
2022-08-22T04:05:24.711Z,12.97
2022-08-22T04:08:02.719Z,12.97
2022-08-22T04:10:51.782Z,13.02
2022-08-22T04:13:36.606Z,12.96
2022-08-22T04:16:11.958Z,12.94
2022-08-22T04:18:41.350Z,12.97
2022-08-22T04:21:13.943Z,12.98
2022-08-22T04:24:02.599Z,12.98
2022-08-22T04:27:01.543Z,12.97
2022-08-22T04:29:38.665Z,12.93
2022-08-22T04:32:15.063Z,13.01
2022-08-22T04:34:50.658Z,13.05
2022-08-22T04:37:23.826Z,13.04
2022-08-22T04:40:01.860Z,13.14
2022-08-22T04:42:45.282Z,13.18
2022-08-22T04:45:50.565Z,13.38
2022-08-22T04:48:34.789Z,13.51
2022-08-22T04:51:05.703Z,13.71
2022-08-22T04:54:03.914Z,14.58
2022-08-22T04:57:07.702Z,15.51
2022-08-22T04:59:35.794Z,16.19
2022-08-22T05:02:08.481Z,16.94
2022-08-22T05:04:47.526Z,17.52
2022-08-22T05:07:21.230Z,17.61
2022-08-22T05:09:58.605Z,17.86
2022-08-22T05:12:37.331Z,17.39
2022-08-22T05:15:19.003Z,16.35
2022-08-22T05:17:52.115Z,15.95
2022-08-22T05:20:22.898Z,15.66
2022-08-22T05:22:58.145Z,15.41
2022-08-22T05:25:30.292Z,15.34
2022-08-22T05:28:08.317Z,17.27
2022-08-22T05:30:36.101Z,18.23
2022-08-22T05:33:19.417Z,18.85
2022-08-22T05:36:17.183Z,20.07
2022-08-22T05:38:52.189Z,20.62
2022-08-22T05:41:24.813Z,21.91
2022-08-22T05:43:53.617Z,22.18
2022-08-22T05:46:39.998Z,22.36
2022-08-22T05:49:38.980Z,23.37
2022-08-22T05:52:30.229Z,22.90
2022-08-22T05:55:22.018Z,22.75
2022-08-22T05:57:58.315Z,22.12
2022-08-22T06:00:32.482Z,23.17
2022-08-22T06:03:29.000Z,23.76
2022-08-22T06:05:59.711Z,25.46
2022-08-22T06:08:38.791Z,25.02
2022-08-22T06:11:34.309Z,25.34
2022-08-22T06:14:26.215Z,25.48
2022-08-22T06:17:02.157Z,24.98
2022-08-22T06:19:29.140Z,24.59
2022-08-22T06:21:57.546Z,25.46
2022-08-22T06:24:27.992Z,25.45
2022-08-22T06:27:02.027Z,23.71
2022-08-22T06:29:33.994Z,24.66
2022-08-22T06:32:07.742Z,23.87
2022-08-22T06:34:38.236Z,24.49
2022-08-22T06:37:10.545Z,24.58
2022-08-22T06:39:42.193Z,23.64
2022-08-22T06:42:16.269Z,23.40
2022-08-22T06:44:59.251Z,23.22
2022-08-22T06:47:30.863Z,22.54
2022-08-22T06:50:13.521Z,22.47
2022-08-22T06:52:53.374Z,23.03
2022-08-22T06:55:20.815Z,22.93
2022-08-22T06:57:55.712Z,22.15
2022-08-22T07:00:23.064Z,23.68
2022-08-22T07:02:58.190Z,22.99
2022-08-22T07:05:28.530Z,23.07
2022-08-22T07:07:56.144Z,23.44
2022-08-22T07:10:24.397Z,23.55
2022-08-22T07:12:54.133Z,22.50
2022-08-22T07:15:37.110Z,22.96
2022-08-22T07:18:15.406Z,22.97
2022-08-22T07:20:45.260Z,22.23
2022-08-22T07:23:31.690Z,23.30
2022-08-22T07:26:12.846Z,23.08
2022-08-22T07:28:51.234Z,23.03
2022-08-22T07:31:38.446Z,22.92
2022-08-22T07:34:44.698Z,22.90
2022-08-22T07:37:52.482Z,23.51
2022-08-22T07:40:22.834Z,23.42
2022-08-22T07:43:02.676Z,23.61
2022-08-22T07:45:34.907Z,23.39
2022-08-22T07:48:26.045Z,23.59
2022-08-22T07:51:15.247Z,23.24
2022-08-22T07:53:45.573Z,23.12
2022-08-22T07:56:16.951Z,23.67
2022-08-22T07:58:47.702Z,23.31
2022-08-22T08:01:20.773Z,23.37
2022-08-22T08:03:54.672Z,23.03
2022-08-22T08:06:24.315Z,23.40
2022-08-22T08:08:52.856Z,23.93
2022-08-22T08:11:22.374Z,23.52
2022-08-22T08:13:54.482Z,23.81
2022-08-22T08:16:27.780Z,23.26
2022-08-22T08:18:58.006Z,23.14
2022-08-22T08:21:42.486Z,23.59
2022-08-22T08:24:19.545Z,23.58
2022-08-22T08:27:13.922Z,23.46
2022-08-22T08:29:48.104Z,23.26
2022-08-22T08:32:15.426Z,23.31
2022-08-22T08:34:43.778Z,23.66
2022-08-22T08:37:51.301Z,23.85
2022-08-22T08:40:40.096Z,23.25
2022-08-22T08:43:28.207Z,23.42
2022-08-22T08:46:14.192Z,23.08
2022-08-22T08:48:57.384Z,23.92
2022-08-22T08:51:42.440Z,23.79
2022-08-22T08:54:37.071Z,23.61
2022-08-22T08:57:32.381Z,23.97
2022-08-22T09:00:21.020Z,24.07
2022-08-22T09:03:15.514Z,24.70
2022-08-22T09:06:31.129Z,24.55
2022-08-22T09:09:10.962Z,24.65
2022-08-22T09:12:00.006Z,24.74
2022-08-22T09:15:10.068Z,24.86
2022-08-22T09:17:57.302Z,25.55
2022-08-22T09:20:47.508Z,25.25
2022-08-22T09:23:41.804Z,25.17
2022-08-22T09:26:19.134Z,24.75
2022-08-22T09:29:07.170Z,25.06
2022-08-22T09:31:47.623Z,24.86
2022-08-22T09:34:34.396Z,24.68
2022-08-22T09:37:21.599Z,25.45
2022-08-22T09:40:00.737Z,25.39
2022-08-22T09:43:02.902Z,25.44
2022-08-22T09:45:52.574Z,25.16
2022-08-22T09:48:30.538Z,24.83
2022-08-22T09:51:31.672Z,24.81
2022-08-22T09:54:21.377Z,24.95
2022-08-22T09:56:58.283Z,25.84
2022-08-22T09:59:27.868Z,25.16
2022-08-22T10:02:24.130Z,24.14
2022-08-22T10:05:40.636Z,24.61
2022-08-22T10:08:33.254Z,24.42
2022-08-22T10:11:09.333Z,25.17
2022-08-22T10:13:57.274Z,24.82
2022-08-22T10:16:49.380Z,25.15
2022-08-22T10:19:28.618Z,24.95
2022-08-22T10:22:19.301Z,24.39
2022-08-22T10:25:33.825Z,24.93
2022-08-22T10:28:13.597Z,24.70
2022-08-22T10:31:02.163Z,24.53
2022-08-22T10:33:33.862Z,24.98
2022-08-22T10:36:13.711Z,25.26
2022-08-22T10:38:47.254Z,24.76
2022-08-22T10:41:38.508Z,25.99
2022-08-22T10:44:27.224Z,25.21
2022-08-22T10:47:07.747Z,24.89
2022-08-22T10:49:54.627Z,24.73
2022-08-22T10:52:31.826Z,25.10
2022-08-22T10:55:17.522Z,25.10
2022-08-22T10:57:59.912Z,25.29
2022-08-22T11:00:50.176Z,24.78
2022-08-22T11:03:46.528Z,24.62
2022-08-22T11:06:23.653Z,25.17
2022-08-22T11:09:10.200Z,25.64
2022-08-22T11:11:41.663Z,24.48
2022-08-22T11:14:30.190Z,24.99
2022-08-22T11:17:28.122Z,25.56
2022-08-22T11:20:09.066Z,25.28
2022-08-22T11:22:48.569Z,25.89
2022-08-22T11:25:35.919Z,25.32
2022-08-22T11:28:50.891Z,24.84
2022-08-22T11:31:38.302Z,25.15
2022-08-22T11:34:44.839Z,25.45
2022-08-22T11:37:42.783Z,24.96
2022-08-22T11:40:25.289Z,25.42
2022-08-22T11:43:05.036Z,25.16
2022-08-22T11:45:40.791Z,24.77
2022-08-22T11:48:21.291Z,25.45
2022-08-22T11:51:00.758Z,25.43
2022-08-22T11:53:34.935Z,26.00
2022-08-22T11:56:13.656Z,24.83
2022-08-22T11:58:58.919Z,25.71
2022-08-22T12:01:50.917Z,26.16
2022-08-22T12:04:23.615Z,26.18
2022-08-22T12:06:59.198Z,25.71
2022-08-22T12:09:43.634Z,25.88
2022-08-22T12:12:30.962Z,26.45
2022-08-22T12:15:45.440Z,26.79
2022-08-22T12:18:33.214Z,25.26
2022-08-22T12:21:23.775Z,25.53
2022-08-22T12:25:02.758Z,25.87
2022-08-22T12:27:55.515Z,26.65
2022-08-22T12:30:57.269Z,26.05
2022-08-22T12:33:45.916Z,26.54
2022-08-22T12:36:20.720Z,26.43
2022-08-22T12:39:05.248Z,27.00
2022-08-22T12:42:07.386Z,25.92
2022-08-22T12:44:49.293Z,25.51
2022-08-22T12:47:37.970Z,25.70
2022-08-22T12:50:36.005Z,25.46
2022-08-22T12:53:20.318Z,25.74
2022-08-22T12:56:16.674Z,26.27
2022-08-22T12:59:19.473Z,26.64
2022-08-22T13:01:49.108Z,26.31
2022-08-22T13:04:33.568Z,26.47
2022-08-22T13:07:05.318Z,26.22
2022-08-22T13:09:46.102Z,26.59
2022-08-22T13:12:28.207Z,26.54
2022-08-22T13:15:32.922Z,26.25
2022-08-22T13:18:28.715Z,26.44
2022-08-22T13:20:56.644Z,26.23
2022-08-22T13:23:39.936Z,26.33
2022-08-22T13:26:31.601Z,26.28
2022-08-22T13:29:39.660Z,26.65
2022-08-22T13:32:04.692Z,26.55
2022-08-22T13:34:43.577Z,26.17
2022-08-22T13:37:24.737Z,26.55
2022-08-22T13:39:58.525Z,25.88
2022-08-22T13:42:30.432Z,25.64
2022-08-22T13:45:02.594Z,25.07
2022-08-22T13:47:32.446Z,24.61
2022-08-22T13:50:19.133Z,24.66
2022-08-22T13:52:58.244Z,24.76
2022-08-22T13:55:32.706Z,25.04
2022-08-22T13:58:20.984Z,25.38
2022-08-22T14:01:13.697Z,25.19
2022-08-22T14:03:48.445Z,25.14
2022-08-22T14:06:35.397Z,24.61
2022-08-22T14:09:16.518Z,25.03
2022-08-22T14:12:08.134Z,25.31
2022-08-22T14:14:42.819Z,25.09
2022-08-22T14:17:20.972Z,25.12
2022-08-22T14:19:58.717Z,25.35
2022-08-22T14:22:34.596Z,25.43
2022-08-22T14:25:16.571Z,25.39
2022-08-22T14:27:49.871Z,25.29
2022-08-22T14:30:24.458Z,25.64
2022-08-22T14:32:57.115Z,25.55
2022-08-22T14:35:34.647Z,25.65
2022-08-22T14:38:32.495Z,25.62
2022-08-22T14:41:06.965Z,25.30
2022-08-22T14:43:33.361Z,25.01
2022-08-22T14:46:02.384Z,24.61
2022-08-22T14:48:39.363Z,24.77
2022-08-22T14:51:22.937Z,24.88
2022-08-22T14:53:50.165Z,24.73
2022-08-22T14:56:23.843Z,24.77
2022-08-22T14:58:59.531Z,24.45
2022-08-22T15:01:29.944Z,24.29
2022-08-22T15:04:07.846Z,24.34
2022-08-22T15:06:57.849Z,24.34
2022-08-22T15:09:50.541Z,23.85
2022-08-22T15:12:23.671Z,23.90
2022-08-22T15:14:54.090Z,23.98
2022-08-22T15:17:35.318Z,24.26
2022-08-22T15:20:13.373Z,24.07
2022-08-22T15:22:45.458Z,23.93
2022-08-22T15:25:27.425Z,24.06
2022-08-22T15:27:57.835Z,23.95
2022-08-22T15:30:35.966Z,24.11
2022-08-22T15:33:20.864Z,24.01
2022-08-22T15:35:49.999Z,24.08
2022-08-22T15:38:32.680Z,23.94
2022-08-22T15:41:22.102Z,24.42
2022-08-22T15:43:53.637Z,24.24
2022-08-22T15:46:23.071Z,24.57
2022-08-22T15:49:03.020Z,24.32
2022-08-22T15:51:41.607Z,24.48
2022-08-22T15:54:24.937Z,24.34
2022-08-22T15:57:29.735Z,24.47
2022-08-22T15:59:58.883Z,24.41
2022-08-22T16:02:40.010Z,24.37
2022-08-22T16:05:09.631Z,24.32
2022-08-22T16:07:43.762Z,24.14
2022-08-22T16:10:46.216Z,24.26
2022-08-22T16:13:26.940Z,24.15
2022-08-22T16:16:05.754Z,24.11
2022-08-22T16:18:36.888Z,24.09
2022-08-22T16:21:10.520Z,24.11
2022-08-22T16:23:58.230Z,24.00
2022-08-22T16:26:24.690Z,23.94
2022-08-22T16:28:59.441Z,23.60
2022-08-22T16:31:33.752Z,23.82
2022-08-22T16:34:46.280Z,23.99
2022-08-22T16:37:14.539Z,23.59
2022-08-22T16:39:46.771Z,23.69
2022-08-22T16:42:15.928Z,23.68
2022-08-22T16:44:45.361Z,23.57
2022-08-22T16:47:14.140Z,23.74
2022-08-22T16:50:00.843Z,23.59
2022-08-22T16:52:27.554Z,23.38
2022-08-22T16:54:53.976Z,23.39
2022-08-22T16:57:50.586Z,23.52
2022-08-22T17:00:44.400Z,23.61
2022-08-22T17:03:49.039Z,23.33
2022-08-22T17:06:43.921Z,23.13
2022-08-22T17:09:40.181Z,23.20
2022-08-22T17:12:29.473Z,23.10
2022-08-22T17:15:33.548Z,23.08
2022-08-22T17:18:11.843Z,23.19
2022-08-22T17:21:17.070Z,22.88
2022-08-22T17:23:59.048Z,22.78
2022-08-22T17:26:40.888Z,22.40
2022-08-22T17:29:22.168Z,22.81
2022-08-22T17:32:19.539Z,22.30
2022-08-22T17:34:55.683Z,22.30
2022-08-22T17:37:38.169Z,22.18
2022-08-22T17:40:23.100Z,22.06
2022-08-22T17:42:57.048Z,21.93
2022-08-22T17:45:57.762Z,21.71
2022-08-22T17:48:38.827Z,21.60
2022-08-22T17:51:25.301Z,21.68
2022-08-22T17:54:14.976Z,21.45
2022-08-22T17:56:47.285Z,21.19
2022-08-22T17:59:26.035Z,21.10
2022-08-22T18:01:59.750Z,21.01
2022-08-22T18:04:47.356Z,20.85
2022-08-22T18:07:14.048Z,20.83
2022-08-22T18:09:50.826Z,20.71
2022-08-22T18:12:24.765Z,20.50
2022-08-22T18:15:08.718Z,20.34
2022-08-22T18:17:40.056Z,20.14
2022-08-22T18:20:26.611Z,19.84
2022-08-22T18:23:36.281Z,19.73
2022-08-22T18:26:28.741Z,19.69
2022-08-22T18:29:03.973Z,19.56
2022-08-22T18:32:06.925Z,19.35
2022-08-22T18:34:43.991Z,19.21
2022-08-22T18:37:33.020Z,19.05
2022-08-22T18:40:07.954Z,18.88
2022-08-22T18:42:42.004Z,18.67
2022-08-22T18:45:16.525Z,18.58
2022-08-22T18:47:44.223Z,18.53
2022-08-22T18:50:31.606Z,18.44
2022-08-22T18:52:59.382Z,18.32
2022-08-22T18:55:48.997Z,18.30
2022-08-22T18:58:36.234Z,18.17
2022-08-22T19:01:32.420Z,18.03
2022-08-22T19:04:14.572Z,17.96
2022-08-22T19:06:56.649Z,17.94
2022-08-22T19:09:43.654Z,17.89
2022-08-22T19:12:31.997Z,17.75
2022-08-22T19:15:20.374Z,17.72
2022-08-22T19:18:03.305Z,17.56
2022-08-22T19:20:51.486Z,17.48
2022-08-22T19:23:37.145Z,17.51
2022-08-22T19:26:33.709Z,17.51
2022-08-22T19:29:16.043Z,17.42
2022-08-22T19:31:48.335Z,17.39
2022-08-22T19:34:25.720Z,17.33
2022-08-22T19:37:32.281Z,17.25
2022-08-22T19:40:05.853Z,17.16
2022-08-22T19:42:35.922Z,17.11
2022-08-22T19:45:05.245Z,16.94
2022-08-22T19:47:34.915Z,16.83
2022-08-22T19:50:10.732Z,16.78
2022-08-22T19:53:19.962Z,16.83
2022-08-22T19:56:02.028Z,16.75
2022-08-22T19:58:47.192Z,16.65
2022-08-22T20:01:38.957Z,16.58
2022-08-22T20:04:27.056Z,16.47
2022-08-22T20:07:14.758Z,16.47
2022-08-22T20:09:52.032Z,16.48
2022-08-22T20:12:54.111Z,16.42
2022-08-22T20:15:23.469Z,16.31
2022-08-22T20:20:55.608Z,16.18
2022-08-22T20:23:30.300Z,16.09
2022-08-22T20:25:57.997Z,16.15
2022-08-22T20:28:49.736Z,16.08
2022-08-22T20:31:26.240Z,15.97
2022-08-22T20:34:00.370Z,15.98
2022-08-22T20:36:28.567Z,15.93
2022-08-22T20:39:08.802Z,15.90
2022-08-22T20:41:40.643Z,15.83
2022-08-22T20:44:22.454Z,15.77
2022-08-22T20:46:53.658Z,15.77
2022-08-22T20:49:34.532Z,15.61
2022-08-22T20:52:09.736Z,15.64
2022-08-22T20:54:39.168Z,15.64
2022-08-22T20:57:19.265Z,15.56
2022-08-22T20:59:54.645Z,15.55
2022-08-22T21:02:34.895Z,15.50
2022-08-22T21:05:13.409Z,15.46
2022-08-22T21:07:42.921Z,15.35
2022-08-22T21:10:35.352Z,15.29
2022-08-22T21:13:06.290Z,15.21
2022-08-22T21:15:42.456Z,15.19
2022-08-22T21:18:23.197Z,15.13
2022-08-22T21:20:50.659Z,15.12
2022-08-22T21:23:17.944Z,15.07
2022-08-22T21:26:00.751Z,14.99
2022-08-22T21:28:57.284Z,14.88
2022-08-22T21:31:28.719Z,14.86
2022-08-22T21:33:56.203Z,14.81
2022-08-22T21:36:27.484Z,14.69
2022-08-22T21:39:04.324Z,14.70
2022-08-22T21:41:43.380Z,14.70
2022-08-22T21:44:30.849Z,14.60
2022-08-22T21:47:14.871Z,14.54
2022-08-22T21:50:02.503Z,14.57
2022-08-22T21:52:31.686Z,14.48
2022-08-22T21:55:16.368Z,14.40
2022-08-22T21:57:43.854Z,14.42
2022-08-22T22:03:01.088Z,14.25
2022-08-22T22:05:29.530Z,14.31
2022-08-22T22:07:56.277Z,14.39
2022-08-22T22:10:23.191Z,14.40
2022-08-22T22:12:52.790Z,14.35
2022-08-22T22:15:21.735Z,14.23
2022-08-22T22:17:48.734Z,14.18
2022-08-22T22:20:18.150Z,14.27
2022-08-22T22:22:46.536Z,14.37
2022-08-22T22:25:40.346Z,14.36
2022-08-22T22:28:18.559Z,14.35
2022-08-22T22:30:50.312Z,14.35
2022-08-22T22:33:18.150Z,14.29
2022-08-22T22:35:45.055Z,14.30
2022-08-22T22:38:12.973Z,14.26
2022-08-22T22:40:41.224Z,14.22
2022-08-22T22:43:09.942Z,14.07
2022-08-22T22:45:36.857Z,14.09
2022-08-22T22:48:04.802Z,14.10
2022-08-22T22:50:31.654Z,14.10
2022-08-22T22:52:58.168Z,14.07
2022-08-22T22:55:25.312Z,14.11
2022-08-22T22:57:59.180Z,14.06
2022-08-22T23:00:32.189Z,13.94
2022-08-22T23:03:01.220Z,13.91
2022-08-22T23:05:29.798Z,13.96
2022-08-22T23:07:56.975Z,13.84
2022-08-22T23:10:23.533Z,13.86
2022-08-22T23:12:50.102Z,13.73
2022-08-22T23:15:21.598Z,13.64
2022-08-22T23:17:48.404Z,13.73
2022-08-22T23:20:14.857Z,13.76
2022-08-22T23:22:42.913Z,13.76
2022-08-22T23:25:09.687Z,13.72
2022-08-22T23:27:36.640Z,13.71
2022-08-22T23:30:05.781Z,13.73
2022-08-22T23:32:32.396Z,13.65
2022-08-22T23:34:58.938Z,13.65
2022-08-22T23:37:25.480Z,13.58
2022-08-22T23:39:52.040Z,13.56
2022-08-22T23:42:18.995Z,13.59
2022-08-22T23:44:46.069Z,13.58
2022-08-22T23:47:14.058Z,13.59
2022-08-22T23:49:42.098Z,13.59
2022-08-22T23:52:11.289Z,13.51
2022-08-22T23:54:37.998Z,13.40
2022-08-22T23:57:11.642Z,13.45
2022-08-22T23:59:44.557Z,13.41
